createdAt,value
2023-05-25T00:02:15.553Z,14.74
2023-05-25T00:04:48.540Z,14.71
2023-05-25T00:07:20.172Z,14.67
2023-05-25T00:09:51.220Z,14.63
2023-05-25T00:12:22.265Z,14.59
2023-05-25T00:14:53.602Z,14.56
2023-05-25T00:17:24.633Z,14.53
2023-05-25T00:19:58.242Z,14.49
2023-05-25T00:22:30.260Z,14.46
2023-05-25T00:25:01.320Z,14.42
2023-05-25T00:27:32.595Z,14.39
2023-05-25T00:30:03.638Z,14.36
2023-05-25T00:32:34.755Z,14.33
2023-05-25T00:35:06.544Z,14.33
2023-05-25T00:37:37.584Z,14.32
2023-05-25T00:40:15.398Z,14.32
2023-05-25T00:42:48.790Z,14.31
2023-05-25T00:45:20.011Z,14.31
2023-05-25T00:47:54.449Z,14.30
2023-05-25T00:50:37.696Z,14.31
2023-05-25T00:53:09.726Z,14.30
2023-05-25T00:55:43.121Z,14.30
2023-05-25T00:58:14.705Z,14.29
2023-05-25T01:00:49.808Z,14.29
2023-05-25T01:03:28.510Z,14.26
2023-05-25T01:06:00.229Z,14.23
2023-05-25T01:08:37.106Z,14.22
2023-05-25T01:11:11.578Z,14.22
2023-05-25T01:13:44.253Z,14.22
2023-05-25T01:16:17.167Z,14.23
2023-05-25T01:18:49.215Z,14.23
2023-05-25T01:21:27.236Z,14.22
2023-05-25T01:24:08.822Z,14.21
2023-05-25T01:26:45.567Z,14.21
2023-05-25T01:29:18.812Z,14.21
2023-05-25T01:31:51.679Z,14.20
2023-05-25T01:34:24.040Z,14.21
2023-05-25T01:36:55.141Z,14.21
2023-05-25T01:39:26.541Z,14.23
2023-05-25T01:41:58.054Z,14.22
2023-05-25T01:44:30.007Z,14.23
2023-05-25T01:47:09.209Z,14.22
2023-05-25T01:49:47.323Z,14.23
2023-05-25T01:52:24.929Z,14.22
2023-05-25T01:55:02.100Z,14.22
2023-05-25T01:57:37.815Z,14.22
2023-05-25T02:00:13.419Z,14.21
2023-05-25T02:02:46.818Z,14.21
2023-05-25T02:05:20.968Z,14.21
2023-05-25T02:07:51.964Z,14.20
2023-05-25T02:10:23.081Z,14.20
2023-05-25T02:12:54.146Z,14.20
2023-05-25T02:15:25.680Z,14.21
2023-05-25T02:17:58.048Z,14.22
2023-05-25T02:20:29.416Z,14.23
2023-05-25T02:23:00.490Z,14.23
2023-05-25T02:25:31.501Z,14.22
2023-05-25T02:28:02.547Z,14.21
2023-05-25T02:30:33.546Z,14.21
2023-05-25T02:33:04.638Z,14.21
2023-05-25T02:35:35.694Z,14.21
2023-05-25T02:38:07.653Z,14.22
2023-05-25T02:40:38.665Z,14.22
2023-05-25T02:43:10.126Z,14.23
2023-05-25T02:45:42.798Z,14.24
2023-05-25T02:48:13.916Z,14.25
2023-05-25T02:50:45.850Z,14.26
2023-05-25T02:53:17.978Z,14.26
2023-05-25T02:55:49.588Z,14.27
2023-05-25T02:58:22.880Z,14.29
2023-05-25T03:01:11.231Z,14.30
2023-05-25T03:03:47.384Z,14.31
2023-05-25T03:06:18.680Z,14.33
2023-05-25T03:08:49.970Z,14.34
2023-05-25T03:11:21.059Z,14.34
2023-05-25T03:13:52.984Z,14.32
2023-05-25T03:16:26.169Z,14.31
2023-05-25T03:18:57.836Z,14.30
2023-05-25T03:21:28.853Z,14.30
2023-05-25T03:24:00.644Z,14.30
2023-05-25T03:26:32.293Z,14.30
2023-05-25T03:29:06.960Z,14.30
2023-05-25T03:31:38.110Z,14.30
2023-05-25T03:34:09.835Z,14.29
2023-05-25T03:36:46.005Z,14.29
2023-05-25T03:39:17.869Z,14.30
2023-05-25T03:41:48.915Z,14.32
2023-05-25T03:44:20.490Z,14.34
2023-05-25T03:46:51.823Z,14.35
2023-05-25T03:49:22.719Z,14.36
2023-05-25T03:51:54.002Z,14.37
2023-05-25T03:54:24.959Z,14.39
2023-05-25T03:57:12.007Z,14.39
2023-05-25T03:59:42.972Z,14.41
2023-05-25T04:02:13.984Z,14.43
2023-05-25T04:04:45.385Z,14.44
2023-05-25T04:07:16.505Z,14.48
2023-05-25T04:09:47.368Z,14.52
2023-05-25T04:12:18.323Z,14.56
2023-05-25T04:14:49.319Z,14.59
2023-05-25T04:17:24.938Z,14.63
2023-05-25T04:19:57.335Z,14.67
2023-05-25T04:22:29.358Z,14.73
2023-05-25T04:25:00.245Z,14.77
2023-05-25T04:27:31.340Z,14.81
2023-05-25T04:30:02.723Z,14.87
2023-05-25T04:32:52.280Z,14.93
2023-05-25T04:35:40.917Z,14.99
2023-05-25T04:38:12.606Z,15.05
2023-05-25T04:40:44.097Z,15.11
2023-05-25T04:43:18.476Z,15.16
2023-05-25T04:45:51.493Z,15.21
2023-05-25T04:48:24.650Z,15.26
2023-05-25T04:50:57.511Z,15.30
2023-05-25T04:53:28.581Z,15.33
2023-05-25T04:55:59.626Z,15.36
2023-05-25T04:58:30.997Z,15.39
2023-05-25T05:01:03.934Z,15.43
2023-05-25T05:03:35.106Z,15.47
2023-05-25T05:06:07.694Z,15.49
2023-05-25T05:08:38.785Z,15.50
2023-05-25T05:11:09.963Z,15.51
2023-05-25T05:13:40.977Z,15.52
2023-05-25T05:16:12.087Z,15.54
2023-05-25T05:18:46.237Z,15.56
2023-05-25T05:21:17.897Z,15.59
2023-05-25T05:23:49.104Z,15.62
2023-05-25T05:26:21.360Z,15.64
2023-05-25T05:28:52.784Z,15.66
2023-05-25T05:31:24.504Z,15.69
2023-05-25T05:33:55.601Z,15.72
2023-05-25T05:36:29.899Z,15.76
2023-05-25T05:39:01.469Z,15.78
2023-05-25T05:41:32.823Z,15.82
2023-05-25T05:44:03.845Z,15.86
2023-05-25T05:46:34.878Z,15.89
2023-05-25T05:49:06.161Z,15.92
2023-05-25T05:51:37.083Z,15.94
2023-05-25T05:54:08.508Z,15.97
2023-05-25T05:56:39.579Z,16.02
2023-05-25T05:59:12.205Z,16.05
2023-05-25T06:01:43.812Z,16.08
2023-05-25T06:04:16.684Z,16.12
2023-05-25T06:06:50.153Z,16.18
2023-05-25T06:09:21.093Z,16.22
2023-05-25T06:11:52.161Z,16.26
2023-05-25T06:14:23.476Z,16.28
2023-05-25T06:16:54.986Z,16.31
2023-05-25T06:19:28.847Z,16.32
2023-05-25T06:22:01.012Z,16.33
2023-05-25T06:24:32.261Z,16.35
2023-05-25T06:27:03.854Z,16.35
2023-05-25T06:29:35.516Z,16.37
2023-05-25T06:32:07.378Z,16.39
2023-05-25T06:34:38.833Z,16.40
2023-05-25T06:37:09.839Z,16.42
2023-05-25T06:39:43.440Z,16.42
2023-05-25T06:42:14.843Z,16.41
2023-05-25T06:44:54.600Z,16.41
2023-05-25T06:47:25.673Z,16.40
2023-05-25T06:49:56.663Z,16.40
2023-05-25T06:52:29.287Z,16.43
2023-05-25T06:55:01.018Z,16.45
2023-05-25T06:57:32.575Z,16.48
2023-05-25T07:00:05.252Z,16.50
2023-05-25T07:02:37.020Z,16.54
2023-05-25T07:05:09.138Z,16.58
2023-05-25T07:07:40.391Z,16.61
2023-05-25T07:10:12.582Z,16.63
2023-05-25T07:12:44.177Z,16.66
2023-05-25T07:15:16.485Z,16.67
2023-05-25T07:17:47.547Z,16.70
2023-05-25T07:20:19.290Z,16.74
2023-05-25T07:22:51.190Z,16.80
2023-05-25T07:25:22.270Z,16.85
2023-05-25T07:27:55.240Z,16.91
2023-05-25T07:30:26.326Z,16.96
2023-05-25T07:32:59.800Z,17.02
2023-05-25T07:35:30.835Z,17.08
2023-05-25T07:38:04.514Z,17.11
2023-05-25T07:40:36.039Z,17.13
2023-05-25T07:43:08.545Z,17.12
2023-05-25T07:45:39.631Z,17.13
2023-05-25T07:48:10.651Z,17.17
2023-05-25T07:50:41.669Z,17.22
2023-05-25T07:53:12.751Z,17.28
2023-05-25T07:55:44.039Z,17.36
2023-05-25T07:58:18.416Z,17.45
2023-05-25T08:00:50.551Z,17.56
2023-05-25T08:03:31.738Z,17.67
2023-05-25T08:06:07.783Z,17.77
2023-05-25T08:08:38.747Z,17.86
2023-05-25T08:11:09.828Z,17.95
2023-05-25T08:13:41.012Z,18.03
2023-05-25T08:16:11.959Z,18.09
2023-05-25T08:18:46.679Z,18.14
2023-05-25T08:21:17.709Z,18.20
2023-05-25T08:23:50.791Z,18.27
2023-05-25T08:28:57.696Z,18.48
2023-05-25T08:31:28.834Z,18.58
2023-05-25T08:33:59.923Z,18.69
2023-05-25T08:36:36.060Z,18.80
2023-05-25T08:39:08.255Z,18.93
2023-05-25T08:41:45.668Z,19.06
2023-05-25T08:44:20.311Z,19.24
2023-05-25T08:46:52.237Z,19.43
2023-05-25T08:49:25.308Z,19.66
2023-05-25T08:51:56.875Z,19.90
2023-05-25T08:54:35.810Z,20.13
2023-05-25T08:57:11.627Z,20.36
2023-05-25T08:59:48.141Z,20.59
2023-05-25T09:02:28.026Z,20.85
2023-05-25T09:05:00.328Z,21.09
2023-05-25T09:07:31.589Z,21.38
2023-05-25T09:10:03.112Z,21.75
2023-05-25T09:12:35.369Z,22.06
2023-05-25T09:15:07.139Z,22.36
2023-05-25T09:17:38.603Z,22.62
2023-05-25T09:20:13.809Z,22.85
2023-05-25T09:22:45.235Z,23.00
2023-05-25T09:25:20.350Z,22.98
2023-05-25T09:27:53.017Z,22.97
2023-05-25T09:30:24.212Z,23.05
2023-05-25T09:32:55.492Z,23.08
2023-05-25T09:35:27.577Z,23.12
2023-05-25T09:37:58.722Z,23.17
2023-05-25T09:40:29.840Z,23.23
2023-05-25T09:43:03.061Z,23.34
2023-05-25T09:45:38.044Z,23.46
2023-05-25T09:48:09.899Z,23.57
2023-05-25T09:50:41.005Z,23.70
2023-05-25T09:53:12.333Z,23.83
2023-05-25T09:55:53.329Z,23.94
2023-05-25T09:58:27.856Z,24.01
2023-05-25T10:00:59.168Z,24.09
2023-05-25T10:03:30.763Z,24.16
2023-05-25T10:06:04.590Z,24.19
2023-05-25T10:08:36.229Z,24.13
2023-05-25T10:11:08.310Z,24.06
2023-05-25T10:13:39.837Z,23.98
2023-05-25T10:16:17.791Z,23.89
2023-05-25T10:18:55.162Z,23.78
2023-05-25T10:21:28.741Z,23.63
2023-05-25T10:24:05.947Z,23.51
2023-05-25T10:26:41.939Z,23.37
2023-05-25T10:29:13.987Z,23.19
2023-05-25T10:31:45.666Z,23.04
2023-05-25T10:34:17.511Z,22.91
2023-05-25T10:36:49.647Z,22.79
2023-05-25T10:39:21.587Z,22.66
2023-05-25T10:41:53.631Z,22.56
2023-05-25T10:44:26.257Z,22.46
2023-05-25T10:46:57.512Z,22.38
2023-05-25T10:49:35.602Z,22.30
2023-05-25T10:52:07.332Z,22.20
2023-05-25T10:54:39.750Z,22.13
2023-05-25T10:57:21.920Z,22.05
2023-05-25T10:59:55.753Z,21.98
2023-05-25T11:02:28.652Z,21.93
2023-05-25T11:05:32.295Z,21.87
2023-05-25T11:08:06.394Z,21.85
2023-05-25T11:10:56.606Z,21.86
2023-05-25T11:13:41.361Z,21.90
2023-05-25T11:16:18.912Z,21.96
2023-05-25T11:18:55.043Z,22.02
2023-05-25T11:21:44.450Z,22.13
2023-05-25T11:24:19.482Z,22.25
2023-05-25T11:26:59.074Z,22.38
2023-05-25T11:29:36.880Z,22.55
2023-05-25T11:32:13.502Z,22.71
2023-05-25T11:34:47.936Z,22.88
2023-05-25T11:37:22.811Z,23.05
2023-05-25T11:39:53.379Z,23.22
2023-05-25T11:42:26.004Z,23.34
2023-05-25T11:44:57.569Z,23.49
2023-05-25T11:47:30.331Z,23.64
2023-05-25T11:50:04.378Z,23.83
2023-05-25T11:52:35.470Z,23.97
2023-05-25T11:55:15.196Z,24.09
2023-05-25T11:57:46.937Z,24.25
2023-05-25T12:00:28.734Z,24.39
2023-05-25T12:02:59.876Z,24.52
2023-05-25T12:05:40.747Z,24.66
2023-05-25T12:08:14.105Z,24.81
2023-05-25T12:10:53.577Z,24.90
2023-05-25T12:13:26.423Z,24.98
2023-05-25T12:16:00.531Z,25.05
2023-05-25T12:18:32.312Z,25.10
2023-05-25T12:21:08.310Z,25.13
2023-05-25T12:23:40.299Z,25.18
2023-05-25T12:26:14.032Z,25.21
2023-05-25T12:29:00.834Z,25.24
2023-05-25T12:31:34.353Z,25.30
2023-05-25T12:34:10.396Z,25.36
2023-05-25T12:36:46.987Z,25.40
2023-05-25T12:39:19.152Z,25.43
2023-05-25T12:41:55.021Z,25.45
2023-05-25T12:44:31.559Z,25.47
2023-05-25T12:47:13.574Z,25.48
2023-05-25T12:49:45.919Z,25.46
2023-05-25T12:52:34.231Z,25.45
2023-05-25T12:55:22.813Z,25.44
2023-05-25T12:57:53.882Z,25.40
2023-05-25T13:00:26.880Z,25.36
2023-05-25T13:02:57.888Z,25.30
2023-05-25T13:05:30.690Z,25.27
2023-05-25T13:08:03.164Z,25.23
2023-05-25T13:10:35.767Z,25.17
2023-05-25T13:13:06.900Z,25.12
2023-05-25T13:15:37.978Z,25.11
2023-05-25T13:18:08.989Z,25.08
2023-05-25T13:20:40.075Z,25.07
2023-05-25T13:23:11.271Z,25.05
2023-05-25T13:25:42.232Z,25.06
2023-05-25T13:28:13.166Z,25.10
2023-05-25T13:30:45.324Z,25.13
2023-05-25T13:33:16.593Z,25.16
2023-05-25T13:35:58.621Z,25.20
2023-05-25T13:38:29.893Z,25.20
2023-05-25T13:41:01.151Z,25.21
2023-05-25T13:43:32.305Z,25.22
2023-05-25T13:46:03.379Z,25.24
2023-05-25T13:48:34.443Z,25.26
2023-05-25T13:51:05.783Z,25.30
2023-05-25T13:53:36.738Z,25.31
2023-05-25T13:56:08.022Z,25.30
2023-05-25T13:58:39.084Z,25.27
2023-05-25T14:01:10.164Z,25.26
2023-05-25T14:03:41.618Z,25.22
2023-05-25T14:06:12.792Z,25.16
2023-05-25T14:08:43.709Z,25.13
2023-05-25T14:11:14.693Z,25.10
2023-05-25T14:13:45.675Z,25.07
2023-05-25T14:16:18.850Z,25.04
2023-05-25T14:18:49.805Z,25.01
2023-05-25T14:21:20.906Z,25.00
2023-05-25T14:23:51.808Z,24.99
2023-05-25T14:26:23.278Z,25.01
2023-05-25T14:28:54.665Z,25.04
2023-05-25T14:31:25.737Z,25.07
2023-05-25T14:33:56.803Z,25.07
2023-05-25T14:36:27.793Z,25.07
2023-05-25T14:38:58.766Z,25.06
2023-05-25T14:41:29.768Z,25.07
2023-05-25T14:44:00.765Z,25.07
2023-05-25T14:46:34.354Z,25.07
2023-05-25T14:49:05.462Z,25.07
2023-05-25T14:51:37.104Z,25.04
2023-05-25T14:54:08.305Z,24.98
2023-05-25T14:56:39.314Z,24.94
2023-05-25T14:59:10.262Z,24.90
2023-05-25T15:01:41.478Z,24.85
2023-05-25T15:04:13.257Z,24.78
2023-05-25T15:06:44.432Z,24.72
2023-05-25T15:09:16.031Z,24.65
2023-05-25T15:11:48.224Z,24.57
2023-05-25T15:14:19.184Z,24.49
2023-05-25T15:16:50.756Z,24.42
2023-05-25T15:19:21.753Z,24.36
2023-05-25T15:21:52.669Z,24.30
2023-05-25T15:24:23.607Z,24.25
2023-05-25T15:26:55.841Z,24.19
2023-05-25T15:29:28.579Z,24.14
2023-05-25T15:31:59.606Z,24.08
2023-05-25T15:34:30.598Z,24.04
2023-05-25T15:37:02.455Z,23.99
2023-05-25T15:39:33.944Z,23.98
2023-05-25T15:42:05.124Z,23.96
2023-05-25T15:44:36.064Z,23.95
2023-05-25T15:47:08.163Z,23.96
2023-05-25T15:49:39.450Z,23.95
2023-05-25T15:52:10.588Z,23.95
2023-05-25T15:54:41.758Z,23.95
2023-05-25T15:57:12.781Z,23.96
2023-05-25T15:59:43.809Z,23.96
2023-05-25T16:02:15.441Z,23.96
2023-05-25T16:04:49.316Z,23.97
2023-05-25T16:07:20.818Z,23.97
2023-05-25T16:09:51.931Z,23.97
2023-05-25T16:12:26.272Z,23.96
2023-05-25T16:14:57.308Z,23.92
2023-05-25T16:17:28.573Z,23.89
2023-05-25T16:19:59.592Z,23.85
2023-05-25T16:22:31.569Z,23.81
2023-05-25T16:25:03.006Z,23.75
2023-05-25T16:27:34.502Z,23.69
2023-05-25T16:30:07.059Z,23.63
2023-05-25T16:32:38.354Z,23.58
2023-05-25T16:35:10.547Z,23.54
2023-05-25T16:37:41.622Z,23.49
2023-05-25T16:40:14.156Z,23.45
2023-05-25T16:42:45.338Z,23.40
2023-05-25T16:45:16.699Z,23.35
2023-05-25T16:47:47.842Z,23.31
2023-05-25T16:50:19.820Z,23.28
2023-05-25T16:52:51.244Z,23.23
2023-05-25T16:55:22.351Z,23.19
2023-05-25T16:57:53.429Z,23.16
2023-05-25T17:00:25.564Z,23.12
2023-05-25T17:02:56.717Z,23.07
2023-05-25T17:05:28.001Z,23.02
2023-05-25T17:07:59.156Z,22.98
2023-05-25T17:10:30.566Z,22.93
2023-05-25T17:13:01.585Z,22.88
2023-05-25T17:15:32.579Z,22.84
2023-05-25T17:18:03.775Z,22.79
2023-05-25T17:20:34.984Z,22.74
2023-05-25T17:23:06.577Z,22.68
2023-05-25T17:25:39.242Z,22.64
2023-05-25T17:28:10.184Z,22.60
2023-05-25T17:30:41.146Z,22.55
2023-05-25T17:33:12.255Z,22.50
2023-05-25T17:35:43.368Z,22.46
2023-05-25T17:38:17.871Z,22.41
2023-05-25T17:40:52.101Z,22.36
2023-05-25T17:43:23.493Z,22.32
2023-05-25T17:45:54.733Z,22.27
2023-05-25T17:48:26.298Z,22.23
2023-05-25T17:50:57.328Z,22.19
2023-05-25T17:53:28.603Z,22.13
2023-05-25T17:55:59.884Z,22.07
2023-05-25T17:58:31.156Z,22.04
2023-05-25T18:01:02.387Z,21.98
2023-05-25T18:03:33.640Z,21.95
2023-05-25T18:06:04.886Z,21.89
2023-05-25T18:08:38.680Z,21.84
2023-05-25T18:11:09.762Z,21.81
2023-05-25T18:13:40.795Z,21.77
2023-05-25T18:16:12.745Z,21.72
2023-05-25T18:18:43.751Z,21.68
2023-05-25T18:21:14.846Z,21.64
2023-05-25T18:23:53.246Z,21.60
2023-05-25T18:26:25.959Z,21.55
2023-05-25T18:28:57.616Z,21.50
2023-05-25T18:31:30.822Z,21.46
2023-05-25T18:34:03.796Z,21.41
2023-05-25T18:36:34.932Z,21.37
2023-05-25T18:39:06.427Z,21.33
2023-05-25T18:41:39.771Z,21.29
2023-05-25T18:44:17.214Z,21.25
2023-05-25T18:46:53.255Z,21.21
2023-05-25T18:49:25.094Z,21.16
2023-05-25T18:51:56.667Z,21.12
2023-05-25T18:54:27.785Z,21.08
2023-05-25T18:56:59.035Z,21.03
2023-05-25T18:59:31.671Z,20.98
2023-05-25T19:02:05.710Z,20.95
2023-05-25T19:04:37.919Z,20.90
2023-05-25T19:07:09.248Z,20.87
2023-05-25T19:09:40.532Z,20.83
2023-05-25T19:12:11.788Z,20.79
2023-05-25T19:14:45.654Z,20.75
2023-05-25T19:17:17.311Z,20.72
2023-05-25T19:19:48.315Z,20.69
2023-05-25T19:22:19.786Z,20.65
2023-05-25T19:25:00.335Z,20.62
2023-05-25T19:27:32.673Z,20.57
2023-05-25T19:30:04.057Z,20.54
2023-05-25T19:32:35.215Z,20.51
2023-05-25T19:35:06.689Z,20.47
2023-05-25T19:37:41.412Z,20.44
2023-05-25T19:40:13.549Z,20.40
2023-05-25T19:42:44.905Z,20.37
2023-05-25T19:45:21.694Z,20.35
2023-05-25T19:47:55.937Z,20.33
2023-05-25T19:50:31.240Z,20.31
2023-05-25T19:53:09.804Z,20.29
2023-05-25T19:55:41.053Z,20.27
2023-05-25T19:58:12.649Z,20.26
2023-05-25T20:00:43.853Z,20.25
2023-05-25T20:03:16.612Z,20.23
2023-05-25T20:05:47.988Z,20.22
2023-05-25T20:08:22.671Z,20.20
2023-05-25T20:11:00.434Z,20.17
2023-05-25T20:13:33.374Z,20.15
2023-05-25T20:16:05.163Z,20.15
2023-05-25T20:18:36.382Z,20.15
2023-05-25T20:21:07.506Z,20.14
2023-05-25T20:23:39.960Z,20.13
2023-05-25T20:26:11.375Z,20.12
2023-05-25T20:28:43.078Z,20.10
2023-05-25T20:31:14.099Z,20.06
2023-05-25T20:33:50.008Z,20.03
2023-05-25T20:36:21.598Z,19.99
2023-05-25T20:38:52.823Z,19.97
2023-05-25T20:41:24.343Z,19.92
2023-05-25T20:44:08.489Z,19.86
2023-05-25T20:46:40.960Z,19.84
2023-05-25T20:49:18.490Z,19.79
2023-05-25T20:51:50.880Z,19.75
2023-05-25T20:54:22.013Z,19.70
2023-05-25T20:57:02.510Z,19.65
2023-05-25T20:59:35.275Z,19.60
2023-05-25T21:02:09.605Z,19.56
2023-05-25T21:04:42.975Z,19.52
2023-05-25T21:07:14.679Z,19.48
2023-05-25T21:09:45.957Z,19.43
2023-05-25T21:12:17.166Z,19.39
2023-05-25T21:14:48.293Z,19.35
2023-05-25T21:17:20.130Z,19.31
2023-05-25T21:19:51.486Z,19.26
2023-05-25T21:22:22.435Z,19.22
2023-05-25T21:24:53.550Z,19.18
2023-05-25T21:27:25.551Z,19.14
2023-05-25T21:29:56.597Z,19.10
2023-05-25T21:32:30.656Z,19.08
2023-05-25T21:35:01.732Z,19.05
2023-05-25T21:37:32.683Z,19.02
2023-05-25T21:40:06.040Z,19.00
2023-05-25T21:42:37.053Z,18.98
2023-05-25T21:45:09.223Z,18.95
2023-05-25T21:47:39.939Z,18.93
2023-05-25T21:50:11.305Z,18.91
2023-05-25T21:52:42.620Z,18.88
2023-05-25T21:55:14.549Z,18.85
2023-05-25T21:57:45.334Z,18.83
2023-05-25T22:00:18.708Z,18.80
2023-05-25T22:02:49.654Z,18.76
2023-05-25T22:05:20.905Z,18.72
2023-05-25T22:07:53.507Z,18.69
2023-05-25T22:10:26.244Z,18.64
2023-05-25T22:12:57.352Z,18.60
2023-05-25T22:15:28.170Z,18.56
2023-05-25T22:17:59.321Z,18.52
2023-05-25T22:20:30.524Z,18.48
2023-05-25T22:23:01.466Z,18.43
2023-05-25T22:25:32.399Z,18.39
2023-05-25T22:28:03.341Z,18.37
2023-05-25T22:30:34.247Z,18.33
2023-05-25T22:33:05.307Z,18.30
2023-05-25T22:35:36.292Z,18.25
2023-05-25T22:38:07.082Z,18.23
2023-05-25T22:40:37.961Z,18.21
2023-05-25T22:43:13.096Z,18.18
2023-05-25T22:45:46.661Z,18.15
2023-05-25T22:48:17.899Z,18.13
2023-05-25T22:50:48.747Z,18.09
2023-05-25T22:53:19.945Z,18.06
2023-05-25T22:55:51.144Z,18.03
2023-05-25T22:58:22.215Z,18.01
2023-05-25T23:00:53.098Z,17.97
2023-05-25T23:03:24.142Z,17.95
2023-05-25T23:05:55.061Z,17.92
2023-05-25T23:08:25.889Z,17.88
2023-05-25T23:10:56.747Z,17.85
2023-05-25T23:13:27.933Z,17.82
2023-05-25T23:15:58.673Z,17.80
2023-05-25T23:18:29.440Z,17.77
2023-05-25T23:21:00.156Z,17.74
2023-05-25T23:23:30.804Z,17.70
2023-05-25T23:26:01.557Z,17.66
2023-05-25T23:28:32.541Z,17.62
2023-05-25T23:31:03.377Z,17.60
2023-05-25T23:33:34.151Z,17.56
2023-05-25T23:36:04.947Z,17.51
2023-05-25T23:38:35.667Z,17.47
2023-05-25T23:41:06.629Z,17.43
2023-05-25T23:43:37.327Z,17.41
2023-05-25T23:46:08.810Z,17.39
2023-05-25T23:48:39.526Z,17.37
2023-05-25T23:51:11.139Z,17.34
2023-05-25T23:53:41.914Z,17.32
2023-05-25T23:56:12.653Z,17.30
2023-05-25T23:58:44.021Z,17.26
